createdAt,value
2018-08-25T00:01:41.553Z,14.37
2018-08-25T00:04:26.450Z,14.44
2018-08-25T00:07:11.256Z,14.54
2018-08-25T00:09:56.061Z,14.50
2018-08-25T00:12:40.794Z,14.33
2018-08-25T00:15:25.620Z,14.31
2018-08-25T00:18:11.464Z,14.08
2018-08-25T00:20:56.353Z,14.18
2018-08-25T00:23:41.399Z,14.08
2018-08-25T00:26:26.143Z,13.95
2018-08-25T00:29:11.121Z,13.96
2018-08-25T00:31:55.922Z,13.96
2018-08-25T00:34:40.833Z,13.97
2018-08-25T00:37:25.636Z,13.97
2018-08-25T00:40:10.560Z,13.75
2018-08-25T00:42:55.329Z,13.71
2018-08-25T00:45:40.206Z,13.61
2018-08-25T00:48:25.184Z,13.63
2018-08-25T00:51:10.045Z,13.66
2018-08-25T00:53:54.840Z,13.73
2018-08-25T00:56:39.926Z,13.84
2018-08-25T00:59:24.884Z,13.91
2018-08-25T01:02:09.720Z,13.95
2018-08-25T01:04:54.862Z,13.89
2018-08-25T01:07:39.715Z,13.84
2018-08-25T01:10:24.678Z,13.71
2018-08-25T01:13:09.904Z,13.65
2018-08-25T01:15:54.707Z,13.68
2018-08-25T01:18:39.588Z,13.70
2018-08-25T01:21:24.343Z,13.68
2018-08-25T01:24:09.147Z,13.61
2018-08-25T01:26:53.959Z,13.79
2018-08-25T01:29:38.722Z,13.77
2018-08-25T01:32:23.548Z,13.60
2018-08-25T01:35:08.348Z,13.39
2018-08-25T01:37:53.077Z,13.35
2018-08-25T01:40:37.838Z,13.25
2018-08-25T01:43:22.680Z,13.22
2018-08-25T01:46:07.562Z,13.21
2018-08-25T01:48:52.337Z,13.23
2018-08-25T01:51:37.112Z,13.22
2018-08-25T01:54:21.913Z,13.04
2018-08-25T01:57:06.703Z,12.95
2018-08-25T01:59:51.619Z,12.88
2018-08-25T02:02:36.403Z,12.91
2018-08-25T02:05:21.176Z,12.95
2018-08-25T02:08:06.406Z,12.86
2018-08-25T02:10:51.314Z,12.80
2018-08-25T02:13:36.090Z,12.76
2018-08-25T02:16:20.958Z,12.74
2018-08-25T02:19:06.139Z,12.79
2018-08-25T02:21:51.232Z,12.64
2018-08-25T02:24:36.021Z,12.61
2018-08-25T02:27:20.788Z,12.63
2018-08-25T02:30:05.886Z,12.54
2018-08-25T02:32:50.661Z,12.58
2018-08-25T02:35:35.530Z,12.66
2018-08-25T02:38:20.238Z,12.72
2018-08-25T02:41:05.426Z,12.63
2018-08-25T02:43:50.194Z,12.69
2018-08-25T02:46:35.148Z,12.67
2018-08-25T02:49:19.946Z,12.66
2018-08-25T02:52:04.713Z,12.73
2018-08-25T02:54:49.424Z,12.82
2018-08-25T02:57:34.230Z,12.72
2018-08-25T03:00:19.061Z,12.55
2018-08-25T03:03:03.852Z,12.44
2018-08-25T03:05:48.622Z,12.36
2018-08-25T03:08:33.387Z,12.37
2018-08-25T03:11:18.176Z,12.31
2018-08-25T03:14:02.887Z,12.19
2018-08-25T03:16:47.804Z,12.08
2018-08-25T03:19:32.639Z,12.12
2018-08-25T03:22:17.351Z,12.14
2018-08-25T03:25:02.134Z,12.14
2018-08-25T03:27:46.867Z,12.27
2018-08-25T03:30:31.678Z,12.37
2018-08-25T03:33:16.707Z,12.33
2018-08-25T03:36:01.389Z,12.39
2018-08-25T03:38:46.112Z,12.30
2018-08-25T03:41:30.933Z,12.35
2018-08-25T03:44:15.691Z,12.38
2018-08-25T03:47:00.403Z,12.35
2018-08-25T03:49:45.226Z,12.31
2018-08-25T03:52:30.079Z,12.22
2018-08-25T03:55:14.944Z,12.12
2018-08-25T03:57:59.700Z,12.01
2018-08-25T04:00:44.545Z,11.85
2018-08-25T04:03:29.367Z,11.74
2018-08-25T04:06:14.151Z,11.72
2018-08-25T04:08:59.167Z,11.58
2018-08-25T04:11:43.996Z,11.60
2018-08-25T04:14:28.747Z,11.50
2018-08-25T04:17:13.676Z,11.40
2018-08-25T04:19:58.565Z,11.33
2018-08-25T04:22:43.281Z,11.34
2018-08-25T04:25:28.072Z,11.21
2018-08-25T04:28:12.885Z,11.07
2018-08-25T04:30:57.659Z,10.98
2018-08-25T04:33:42.464Z,10.92
2018-08-25T04:36:27.317Z,11.06
2018-08-25T04:39:12.875Z,11.11
2018-08-25T04:41:57.781Z,11.04
2018-08-25T04:44:42.760Z,11.13
2018-08-25T04:47:27.473Z,11.24
2018-08-25T04:50:12.286Z,11.25
2018-08-25T04:52:57.032Z,11.46
2018-08-25T04:55:41.887Z,11.39
2018-08-25T04:58:26.771Z,11.42
2018-08-25T05:01:14.505Z,11.52
2018-08-25T05:03:59.339Z,11.41
2018-08-25T05:06:44.202Z,11.54
2018-08-25T05:09:29.040Z,11.70
2018-08-25T05:12:13.798Z,11.75
2018-08-25T05:14:58.794Z,11.94
2018-08-25T05:17:43.668Z,12.14
2018-08-25T05:20:28.437Z,12.21
2018-08-25T05:23:13.224Z,12.30
2018-08-25T05:25:58.003Z,12.40
2018-08-25T05:28:42.793Z,12.71
2018-08-25T05:31:27.524Z,12.56
2018-08-25T05:34:12.350Z,12.94
2018-08-25T05:36:57.166Z,12.88
2018-08-25T05:39:42.046Z,12.80
2018-08-25T05:42:27.062Z,12.77
2018-08-25T05:45:11.846Z,12.98
2018-08-25T05:47:56.657Z,13.00
2018-08-25T05:50:41.463Z,13.12
2018-08-25T05:53:26.254Z,13.31
2018-08-25T05:56:11.067Z,13.50
2018-08-25T05:58:55.834Z,13.71
2018-08-25T06:01:40.628Z,13.75
2018-08-25T06:04:25.454Z,13.80
2018-08-25T06:07:10.252Z,13.83
2018-08-25T06:09:55.181Z,13.90
2018-08-25T06:12:40.077Z,14.12
2018-08-25T06:15:24.853Z,14.38
2018-08-25T06:18:09.744Z,14.26
2018-08-25T06:20:54.583Z,14.19
2018-08-25T06:23:39.428Z,14.09
2018-08-25T06:26:24.189Z,13.96
2018-08-25T06:29:08.970Z,14.15
2018-08-25T06:31:53.803Z,14.19
2018-08-25T06:34:38.528Z,14.44
2018-08-25T06:37:23.371Z,14.36
2018-08-25T06:40:08.371Z,14.37
2018-08-25T06:42:53.202Z,14.56
2018-08-25T06:45:37.964Z,14.50
2018-08-25T06:48:22.750Z,14.89
2018-08-25T06:51:07.637Z,15.22
2018-08-25T06:53:52.436Z,15.57
2018-08-25T06:56:37.214Z,15.57
2018-08-25T06:59:22.070Z,15.52
2018-08-25T07:02:06.960Z,15.35
2018-08-25T07:04:51.815Z,15.42
2018-08-25T07:07:36.926Z,15.15
2018-08-25T07:10:21.763Z,15.25
2018-08-25T07:13:06.734Z,15.09
2018-08-25T07:15:51.636Z,15.22
2018-08-25T07:18:36.482Z,15.28
2018-08-25T07:21:21.333Z,15.70
2018-08-25T07:24:06.177Z,15.76
2018-08-25T07:26:50.954Z,15.97
2018-08-25T07:29:35.692Z,15.93
2018-08-25T07:32:20.552Z,16.09
2018-08-25T07:35:05.548Z,16.62
2018-08-25T07:37:50.364Z,16.42
2018-08-25T07:40:35.267Z,16.32
2018-08-25T07:43:19.966Z,16.26
2018-08-25T07:46:04.991Z,16.14
2018-08-25T07:48:49.798Z,16.18
2018-08-25T07:51:34.719Z,16.45
2018-08-25T07:54:19.600Z,16.29
2018-08-25T07:57:04.345Z,16.16
2018-08-25T07:59:49.200Z,16.10
2018-08-25T08:02:34.069Z,15.90
2018-08-25T08:05:18.875Z,16.00
2018-08-25T08:08:03.643Z,15.76
2018-08-25T08:10:48.447Z,15.87
2018-08-25T08:13:33.197Z,16.00
2018-08-25T08:16:18.086Z,15.86
2018-08-25T08:19:02.968Z,16.07
2018-08-25T08:21:47.786Z,16.01
2018-08-25T08:24:32.634Z,16.18
2018-08-25T08:27:17.669Z,16.12
2018-08-25T08:30:02.510Z,16.52
2018-08-25T08:32:47.361Z,16.74
2018-08-25T08:35:32.108Z,16.48
2018-08-25T08:38:16.990Z,16.25
2018-08-25T08:41:01.897Z,16.20
2018-08-25T08:43:46.680Z,16.26
2018-08-25T08:46:36.442Z,15.97
2018-08-25T08:49:21.231Z,16.01
2018-08-25T08:52:06.169Z,16.16
2018-08-25T08:54:51.042Z,15.89
2018-08-25T08:57:35.855Z,15.85
2018-08-25T09:00:20.721Z,15.84
2018-08-25T09:03:05.694Z,15.98
2018-08-25T09:05:50.861Z,16.04
2018-08-25T09:08:35.657Z,15.96
2018-08-25T09:11:20.664Z,16.17
2018-08-25T09:14:05.611Z,15.98
2018-08-25T09:16:50.508Z,15.86
2018-08-25T09:19:35.360Z,16.05
2018-08-25T09:22:20.190Z,16.18
2018-08-25T09:25:05.080Z,16.05
2018-08-25T09:27:49.900Z,16.36
2018-08-25T09:30:34.674Z,16.48
2018-08-25T09:33:19.524Z,16.25
2018-08-25T09:36:04.460Z,16.03
2018-08-25T09:38:49.465Z,16.56
2018-08-25T09:41:34.238Z,16.33
2018-08-25T09:44:19.061Z,16.44
2018-08-25T09:47:03.832Z,16.71
2018-08-25T09:49:48.659Z,16.51
2018-08-25T09:52:33.442Z,16.23
2018-08-25T09:55:18.208Z,16.46
2018-08-25T09:58:03.116Z,16.07
2018-08-25T10:00:52.044Z,16.21
2018-08-25T10:03:36.833Z,16.11
2018-08-25T10:06:21.635Z,16.36
2018-08-25T10:09:09.164Z,16.28
2018-08-25T10:11:54.220Z,16.94
2018-08-25T10:14:38.969Z,16.93
2018-08-25T10:17:23.831Z,17.10
2018-08-25T10:20:08.707Z,17.42
2018-08-25T10:22:53.538Z,17.45
2018-08-25T10:25:38.336Z,17.33
2018-08-25T10:28:23.184Z,17.70
2018-08-25T10:31:08.108Z,17.94
2018-08-25T10:33:52.967Z,18.01
2018-08-25T10:36:37.856Z,18.11
2018-08-25T10:39:22.591Z,18.23
2018-08-25T10:42:09.113Z,18.50
2018-08-25T10:44:53.965Z,18.38
2018-08-25T10:47:38.931Z,18.84
2018-08-25T10:50:23.836Z,17.70
2018-08-25T10:53:08.748Z,17.83
2018-08-25T10:55:53.615Z,18.74
2018-08-25T10:58:38.501Z,18.79
2018-08-25T11:01:23.387Z,18.73
2018-08-25T11:04:08.238Z,18.84
2018-08-25T11:06:53.086Z,18.86
2018-08-25T11:09:37.947Z,18.51
2018-08-25T11:12:23.004Z,19.08
2018-08-25T11:15:07.906Z,18.90
2018-08-25T11:17:52.770Z,18.86
2018-08-25T11:20:37.643Z,19.34
2018-08-25T11:23:22.467Z,19.14
2018-08-25T11:26:07.423Z,19.25
2018-08-25T11:28:52.317Z,19.26
2018-08-25T11:31:37.226Z,19.61
2018-08-25T11:34:22.055Z,19.56
2018-08-25T11:37:07.557Z,20.00
2018-08-25T11:39:52.325Z,19.69
2018-08-25T11:42:37.120Z,20.23
2018-08-25T11:45:21.947Z,20.27
2018-08-25T11:48:06.804Z,19.04
2018-08-25T11:50:51.640Z,19.32
2018-08-25T11:53:36.398Z,17.90
2018-08-25T11:56:21.170Z,16.83
2018-08-25T11:59:06.045Z,16.63
2018-08-25T12:01:50.930Z,16.55
2018-08-25T12:04:35.773Z,15.47
2018-08-25T12:07:20.737Z,14.95
2018-08-25T12:10:05.902Z,14.40
2018-08-25T12:12:50.700Z,14.34
2018-08-25T12:15:35.545Z,14.25
2018-08-25T12:18:20.396Z,14.15
2018-08-25T12:21:05.204Z,14.28
2018-08-25T12:23:49.971Z,14.35
2018-08-25T12:26:35.146Z,14.36
2018-08-25T12:29:19.893Z,14.56
2018-08-25T12:32:04.746Z,14.44
2018-08-25T12:34:49.552Z,14.76
2018-08-25T12:37:34.332Z,14.92
2018-08-25T12:40:20.075Z,14.87
2018-08-25T12:43:05.062Z,14.78
2018-08-25T12:45:49.899Z,14.86
2018-08-25T12:49:58.459Z,14.90
2018-08-25T12:53:03.459Z,14.83
2018-08-25T12:56:08.356Z,15.09
2018-08-25T12:59:13.123Z,15.69
2018-08-25T13:02:18.040Z,16.18
2018-08-25T13:05:22.740Z,16.38
2018-08-25T13:08:27.534Z,17.38
2018-08-25T13:11:32.398Z,18.14
2018-08-25T13:14:37.235Z,17.54
2018-08-25T13:17:41.981Z,17.25
2018-08-25T13:20:46.732Z,17.02
2018-08-25T13:23:51.612Z,17.25
2018-08-25T13:26:56.519Z,17.50
2018-08-25T13:30:01.321Z,17.33
2018-08-25T13:33:06.223Z,17.84
2018-08-25T13:36:11.048Z,17.83
2018-08-25T13:39:16.833Z,17.57
2018-08-25T13:42:21.911Z,17.71
2018-08-25T13:45:26.818Z,18.25
2018-08-25T13:48:31.616Z,18.33
2018-08-25T13:51:36.524Z,18.90
2018-08-25T13:54:41.692Z,19.23
2018-08-25T13:57:46.520Z,19.74
2018-08-25T14:00:51.339Z,19.12
2018-08-25T14:03:56.412Z,19.01
2018-08-25T14:07:01.424Z,19.18
2018-08-25T14:10:06.447Z,19.32
2018-08-25T14:13:11.298Z,19.68
2018-08-25T14:16:16.340Z,19.72
2018-08-25T14:19:21.127Z,19.73
2018-08-25T14:22:25.912Z,19.91
2018-08-25T14:25:30.719Z,19.92
2018-08-25T14:28:35.684Z,20.30
2018-08-25T14:31:40.502Z,20.55
2018-08-25T14:34:45.346Z,20.01
2018-08-25T14:37:50.288Z,20.60
2018-08-25T14:40:55.056Z,20.17
2018-08-25T14:43:59.859Z,19.69
2018-08-25T14:47:04.807Z,19.81
2018-08-25T14:50:09.653Z,20.43
2018-08-25T14:53:14.683Z,20.32
2018-08-25T14:56:19.798Z,20.22
2018-08-25T14:59:24.656Z,19.57
2018-08-25T15:02:29.510Z,19.58
2018-08-25T15:05:34.392Z,19.48
2018-08-25T15:08:39.180Z,19.41
2018-08-25T15:11:45.165Z,19.57
2018-08-25T15:14:49.957Z,19.79
2018-08-25T15:17:54.862Z,19.87
2018-08-25T15:20:59.628Z,20.05
2018-08-25T15:24:04.334Z,20.31
2018-08-25T15:27:09.190Z,20.42
2018-08-25T15:30:14.051Z,19.99
2018-08-25T15:33:18.796Z,20.09
2018-08-25T15:36:23.585Z,19.98
2018-08-25T15:39:28.320Z,19.90
2018-08-25T15:42:33.094Z,19.92
2018-08-25T15:45:37.962Z,20.27
2018-08-25T15:48:42.842Z,20.24
2018-08-25T15:51:47.629Z,19.96
2018-08-25T15:54:52.598Z,19.64
2018-08-25T15:57:57.653Z,19.38
2018-08-25T16:01:02.370Z,18.81
2018-08-25T16:04:07.483Z,18.53
2018-08-25T16:07:12.387Z,18.50
2018-08-25T16:10:17.262Z,18.29
2018-08-25T16:13:22.140Z,18.10
2018-08-25T16:16:26.899Z,18.62
2018-08-25T16:19:31.657Z,18.70
2018-08-25T16:22:36.495Z,18.40
2018-08-25T16:25:41.328Z,18.16
2018-08-25T16:28:46.125Z,17.96
2018-08-25T16:31:50.973Z,17.97
2018-08-25T16:34:55.761Z,17.42
2018-08-25T16:38:00.668Z,17.64
2018-08-25T16:41:05.474Z,17.47
2018-08-25T16:44:10.324Z,17.59
2018-08-25T16:47:15.177Z,16.94
2018-08-25T16:50:20.159Z,17.06
2018-08-25T16:53:24.983Z,17.13
2018-08-25T16:56:29.786Z,17.03
2018-08-25T16:59:34.662Z,17.09
2018-08-25T17:02:39.488Z,16.88
2018-08-25T17:05:44.273Z,16.80
2018-08-25T17:08:49.032Z,16.57
2018-08-25T17:11:53.926Z,16.53
2018-08-25T17:14:58.719Z,16.49
2018-08-25T17:18:03.645Z,16.20
2018-08-25T17:21:08.533Z,16.06
2018-08-25T17:24:13.394Z,15.79
2018-08-25T17:27:18.200Z,15.72
2018-08-25T17:30:23.029Z,15.58
2018-08-25T17:33:28.031Z,15.38
2018-08-25T17:36:32.836Z,15.35
2018-08-25T17:39:37.768Z,15.32
2018-08-25T17:42:42.563Z,15.13
2018-08-25T17:45:47.356Z,14.92
2018-08-25T17:48:52.184Z,14.77
2018-08-25T17:51:56.921Z,14.64
2018-08-25T17:55:01.735Z,14.51
2018-08-25T17:58:06.713Z,14.45
2018-08-25T18:01:11.576Z,14.45
2018-08-25T18:04:16.506Z,14.42
2018-08-25T18:07:21.350Z,14.09
2018-08-25T18:10:26.216Z,14.10
2018-08-25T18:13:31.196Z,14.11
2018-08-25T18:16:36.031Z,13.91
2018-08-25T18:19:40.840Z,13.75
2018-08-25T18:22:45.827Z,13.48
2018-08-25T18:25:50.735Z,13.30
2018-08-25T18:28:55.600Z,13.05
2018-08-25T18:32:00.572Z,12.93
2018-08-25T18:35:05.538Z,12.84
2018-08-25T18:38:10.362Z,12.59
2018-08-25T18:41:15.141Z,12.30
2018-08-25T18:44:20.190Z,12.18
2018-08-25T18:47:25.065Z,12.06
2018-08-25T18:50:30.927Z,11.89
2018-08-25T18:53:35.792Z,11.81
2018-08-25T18:56:40.648Z,11.88
2018-08-25T18:59:45.387Z,11.89
2018-08-25T19:02:50.197Z,11.67
2018-08-25T19:05:55.208Z,11.55
2018-08-25T19:09:00.152Z,11.47
2018-08-25T19:12:05.020Z,11.36
2018-08-25T19:15:09.976Z,11.35
2018-08-25T19:18:14.965Z,11.33
2018-08-25T19:21:19.834Z,11.32
2018-08-25T19:24:24.729Z,11.32
2018-08-25T19:27:29.470Z,11.30
2018-08-25T19:30:34.396Z,11.23
2018-08-25T19:33:39.944Z,11.24
2018-08-25T19:36:44.815Z,11.09
2018-08-25T19:39:49.693Z,11.04
2018-08-25T19:42:54.945Z,10.91
2018-08-25T19:45:59.822Z,10.91
2018-08-25T19:49:04.684Z,10.65
2018-08-25T19:52:09.495Z,10.58
2018-08-25T19:55:15.209Z,10.49
2018-08-25T19:58:20.133Z,10.41
2018-08-25T20:01:25.199Z,10.50
2018-08-25T20:04:30.067Z,10.62
2018-08-25T20:07:34.891Z,10.60
2018-08-25T20:10:39.764Z,10.33
2018-08-25T20:13:44.732Z,10.38
2018-08-25T20:16:49.529Z,10.14
2018-08-25T20:19:54.363Z,10.00
2018-08-25T20:22:59.305Z,10.07
2018-08-25T20:26:04.175Z,10.09
2018-08-25T20:29:10.027Z,10.12
2018-08-25T20:32:17.248Z,10.07
2018-08-25T20:35:22.208Z,9.96
2018-08-25T20:38:27.058Z,9.85
2018-08-25T20:41:31.984Z,9.77
2018-08-25T20:44:36.852Z,9.74
2018-08-25T20:47:41.900Z,9.62
2018-08-25T20:50:46.620Z,9.57
2018-08-25T20:53:51.490Z,9.66
2018-08-25T20:56:56.446Z,9.69
2018-08-25T21:00:01.364Z,9.46
2018-08-25T21:03:06.256Z,9.33
2018-08-25T21:06:11.099Z,9.30
2018-08-25T21:09:15.989Z,9.27
2018-08-25T21:12:20.832Z,9.23
2018-08-25T21:15:25.742Z,9.26
2018-08-25T21:18:30.627Z,9.36
2018-08-25T21:21:35.581Z,9.28
2018-08-25T21:24:40.489Z,9.42
2018-08-25T21:27:45.377Z,9.31
2018-08-25T21:30:50.237Z,9.22
2018-08-25T21:33:55.550Z,9.24
2018-08-25T21:37:00.560Z,9.24
2018-08-25T21:40:05.515Z,9.08
2018-08-25T21:43:10.417Z,9.07
2018-08-25T21:46:15.392Z,9.14
2018-08-25T21:49:20.132Z,9.23
2018-08-25T21:52:24.948Z,9.18
2018-08-25T21:55:30.091Z,9.10
2018-08-25T21:58:36.627Z,9.00
2018-08-25T22:01:41.410Z,9.06
2018-08-25T22:04:46.660Z,9.14
2018-08-25T22:07:51.474Z,8.97
2018-08-25T22:10:56.356Z,8.78
2018-08-25T22:14:01.138Z,8.92
2018-08-25T22:17:06.363Z,9.00
2018-08-25T22:20:11.157Z,8.98
2018-08-25T22:23:16.129Z,9.02
2018-08-25T22:26:20.936Z,9.05
2018-08-25T22:29:25.842Z,8.99
2018-08-25T22:32:30.693Z,8.78
2018-08-25T22:35:35.481Z,8.68
2018-08-25T22:38:40.373Z,8.62
2018-08-25T22:41:45.291Z,8.58
2018-08-25T22:44:50.116Z,8.59
2018-08-25T22:47:54.891Z,8.52
2018-08-25T22:50:59.744Z,8.42
2018-08-25T22:54:04.592Z,8.37
2018-08-25T22:57:09.370Z,8.32
2018-08-25T23:00:14.343Z,8.18
2018-08-25T23:03:19.103Z,8.25
2018-08-25T23:06:23.987Z,8.17
2018-08-25T23:09:28.866Z,8.26
2018-08-25T23:12:34.368Z,8.33
2018-08-25T23:15:39.134Z,8.21
2018-08-25T23:18:44.021Z,8.13
2018-08-25T23:21:48.806Z,8.31
2018-08-25T23:24:53.571Z,8.14
2018-08-25T23:27:58.501Z,7.96
2018-08-25T23:31:03.194Z,7.94
2018-08-25T23:34:07.959Z,7.84
2018-08-25T23:37:13.036Z,7.82
2018-08-25T23:40:18.031Z,7.72
2018-08-25T23:43:22.788Z,7.68
2018-08-25T23:46:27.550Z,7.66
2018-08-25T23:49:32.413Z,7.69
2018-08-25T23:52:37.867Z,7.70
2018-08-25T23:55:42.661Z,7.59
2018-08-25T23:58:47.823Z,7.73
